Time;durP1;ratioP1;P1;durP2;ratioP2;P2;SDS_P1;SDS_P2;PMS_P1;PMS_P2;Temp;Humidity;BMP_temperature;BMP_pressure;BME280_temperature;BME280_humidity;BME280_pressure;Samples;Min_cycle;Max_cycle;Signal;HPM_P1;HPM_P2
2023/04/24 00:00:58;;;;;;;10.60;6.90;;;;;;;-144.73;100.00;54374.84;5012236;28;20038;-73
2023/04/24 00:03:24;;;;;;;11.38;6.60;;;;;;;-144.73;100.00;54333.81;5030615;28;20571;-74
2023/04/24 00:05:49;;;;;;;13.82;6.93;;;;;;;-144.73;100.00;54378.97;5026677;28;20049;-75
2023/04/24 00:08:15;;;;;;;9.43;7.13;;;;;;;-144.73;100.00;54354.34;5026838;28;20104;-73
2023/04/24 00:10:41;;;;;;;10.23;6.57;;;;;;;-144.73;100.00;54362.53;5029555;28;20095;-73
2023/04/24 00:13:06;;;;;;;8.43;6.65;;;;;;;-144.73;100.00;54346.13;5031014;28;20033;-73
2023/04/24 00:15:32;;;;;;;11.98;7.60;;;;;;;-144.73;100.00;54358.44;5029171;28;20037;-73
2023/04/24 00:17:58;;;;;;;10.90;6.82;;;;;;;-144.73;100.00;54364.59;5030043;28;20020;-73
2023/04/24 00:20:23;;;;;;;17.60;7.43;;;;;;;-144.73;100.00;54370.75;5012624;28;20049;-73
2023/04/24 00:22:49;;;;;;;13.32;6.93;;;;;;;-144.73;100.00;54378.97;5012637;28;20056;-73
2023/04/24 00:25:14;;;;;;;10.05;7.00;;;;;;;-144.73;100.00;54319.44;5009835;28;20081;-73
2023/04/24 00:27:40;;;;;;;8.55;6.70;;;;;;;-144.73;100.00;54374.84;5012981;28;20021;-73
2023/04/24 00:30:06;;;;;;;11.75;6.93;;;;;;;-144.73;100.00;54321.50;5029889;28;20073;-73
2023/04/24 00:32:31;;;;;;;11.55;7.40;;;;;;;-144.73;100.00;54366.66;5012890;28;20045;-73
2023/04/24 00:34:56;;;;;;;11.38;7.97;;;;;;;-144.73;100.00;54387.19;5012582;28;20072;-72
2023/04/24 00:37:22;;;;;;;10.32;7.28;;;;;;;-144.73;100.00;54374.84;5011362;28;20057;-72
2023/04/24 00:39:47;;;;;;;17.00;7.95;;;;;;;-144.73;100.00;54364.59;5019096;28;20599;-72
2023/04/24 00:42:12;;;;;;;9.45;7.38;;;;;;;-144.73;100.00;54378.97;5014833;28;20032;-73
2023/04/24 00:44:38;;;;;;;12.27;7.47;;;;;;;-144.73;100.00;54366.66;5010507;28;20033;-73
2023/04/24 00:47:04;;;;;;;9.93;7.47;;;;;;;-144.73;100.00;54354.34;5016901;28;20034;-73
2023/04/24 00:49:30;;;;;;;12.23;7.47;;;;;;;-144.73;100.00;54374.84;5014487;28;20034;-73
2023/04/24 00:51:56;;;;;;;11.07;7.20;;;;;;;-144.73;100.00;54358.44;5030032;28;20448;-73
2023/04/24 00:54:22;;;;;;;12.27;7.80;;;;;;;-144.73;100.00;54339.97;5029699;28;20029;-73
2023/04/24 00:56:48;;;;;;;11.60;7.75;;;;;;;-144.73;100.00;54387.19;5029987;28;20033;-72
2023/04/24 00:59:16;;;;;;;13.32;7.60;;;;;;;-144.73;100.00;54346.13;5028814;28;20435;-73
2023/04/24 01:01:42;;;;;;;9.93;7.72;;;;;;;-144.73;100.00;54381.00;5012076;28;20028;-72
2023/04/24 01:04:09;;;;;;;16.52;7.75;;;;;;;-144.73;100.00;54366.66;5014294;28;20021;-73
2023/04/24 01:06:39;;;;;;;11.27;7.97;;;;;;;-144.73;100.00;54407.69;5026378;28;20017;-73
2023/04/24 01:09:04;;;;;;;9.93;8.20;;;;;;;-144.73;100.00;54374.84;5013849;28;20101;-73
2023/04/24 01:11:30;;;;;;;14.15;9.20;;;;;;;-144.73;100.00;54364.59;5026811;28;20156;-73
2023/04/24 01:13:57;;;;;;;11.27;7.97;;;;;;;-144.73;100.00;54395.38;5029698;28;20025;-72
2023/04/24 01:16:22;;;;;;;13.73;8.90;;;;;;;-144.73;100.00;54370.75;5025869;28;20049;-73
2023/04/24 01:18:48;;;;;;;9.50;8.07;;;;;;;-144.73;100.00;54366.66;5015967;28;20607;-73
2023/04/24 01:21:16;;;;;;;11.10;8.18;;;;;;;-144.73;100.00;54333.81;5030716;28;20040;-73
2023/04/24 01:23:43;;;;;;;17.33;8.25;;;;;;;-144.73;100.00;54362.53;5031025;28;20029;-72
2023/04/24 01:26:09;;;;;;;12.15;7.20;;;;;;;-144.73;100.00;54383.06;5031845;28;20038;-73
2023/04/24 01:28:34;;;;;;;12.02;8.40;;;;;;;-144.73;100.00;54428.22;5029880;28;20487;-73
2023/04/24 01:30:59;;;;;;;11.57;7.82;;;;;;;-144.73;100.00;54346.13;5032749;28;20034;-73
2023/04/24 01:33:25;;;;;;;13.55;7.80;;;;;;;-144.73;100.00;54350.22;5016045;28;20028;-73
2023/04/24 01:35:51;;;;;;;11.07;8.85;;;;;;;-144.73;100.00;54383.06;5032537;28;20041;-73
2023/04/24 01:38:16;;;;;;;8.82;7.15;;;;;;;-144.73;100.00;54346.13;5033134;28;20810;-73
2023/04/24 01:40:41;;;;;;;11.75;7.20;;;;;;;-144.73;100.00;54346.13;5017019;28;20065;-73
2023/04/24 01:43:07;;;;;;;9.32;6.82;;;;;;;-144.73;100.00;54391.28;5032065;28;20104;-73
2023/04/24 01:45:32;;;;;;;23.30;7.63;;;;;;;-144.73;100.00;54360.50;5015131;28;20033;-72
2023/04/24 01:47:58;;;;;;;7.30;5.72;;;;;;;-144.73;100.00;54370.75;5033743;28;20111;-72
2023/04/24 01:50:24;;;;;;;8.73;6.07;;;;;;;-144.73;100.00;54374.84;5031940;28;20025;-74
2023/04/24 01:52:49;;;;;;;8.48;5.75;;;;;;;-144.73;100.00;54368.69;5032384;28;20036;-73
2023/04/24 01:55:15;;;;;;;10.77;5.88;;;;;;;-144.73;100.00;54346.13;5012357;28;20044;-73
2023/04/24 01:57:41;;;;;;;9.82;6.28;;;;;;;-144.73;100.00;54387.19;5031934;28;20041;-73
2023/04/24 02:00:07;;;;;;;8.02;5.38;;;;;;;-144.73;100.00;54321.50;5027655;28;20072;-74
2023/04/24 02:02:33;;;;;;;9.88;5.85;;;;;;;-144.73;100.00;54337.91;5016987;28;20487;-73
2023/04/24 02:04:58;;;;;;;4.85;4.25;;;;;;;-144.73;100.00;54370.75;5026761;28;20037;-73
2023/04/24 02:07:24;;;;;;;7.18;4.95;;;;;;;-144.73;100.00;54407.69;5029821;28;20025;-73
2023/04/24 02:09:49;;;;;;;10.23;4.43;;;;;;;-144.73;100.00;54389.22;5031646;28;20115;-73
2023/04/24 02:12:15;;;;;;;7.80;5.00;;;;;;;-144.73;100.00;54374.84;5015123;28;20411;-73
2023/04/24 02:14:42;;;;;;;7.18;4.13;;;;;;;-144.73;100.00;54385.13;5014631;28;20507;-73
2023/04/24 02:17:07;;;;;;;6.72;4.20;;;;;;;-144.73;100.00;54395.38;5015024;28;20029;-73
2023/04/24 02:19:33;;;;;;;7.38;4.07;;;;;;;-144.73;100.00;54378.97;5013865;28;20046;-73
2023/04/24 02:21:58;;;;;;;5.05;3.55;;;;;;;-144.73;100.00;54337.91;5031095;28;20355;-73
2023/04/24 02:24:23;;;;;;;7.88;4.10;;;;;;;-144.73;100.00;54387.19;5014682;28;20033;-73
2023/04/24 02:26:49;;;;;;;5.47;3.85;;;;;;;-144.73;100.00;54383.06;5031994;28;20103;-73
2023/04/24 02:29:15;;;;;;;9.43;3.97;;;;;;;-144.73;100.00;54374.84;5014121;28;20458;-73
2023/04/24 02:31:40;;;;;;;6.60;4.07;;;;;;;-144.73;100.00;54391.28;5032006;28;20075;-73
2023/04/24 02:34:05;;;;;;;5.85;3.80;;;;;;;-144.73;100.00;54362.53;5017057;28;20423;-73
2023/04/24 02:36:31;;;;;;;9.27;4.38;;;;;;;-144.73;100.00;54378.97;5032287;28;20427;-73
2023/04/24 02:38:56;;;;;;;7.18;3.85;;;;;;;-144.73;100.00;54383.06;5031090;28;20026;-73
2023/04/24 02:41:22;;;;;;;9.27;4.05;;;;;;;-144.73;100.00;54348.19;5024974;28;20116;-73
2023/04/24 02:43:47;;;;;;;6.78;3.88;;;;;;;-144.73;100.00;54342.03;5027423;28;20043;-73
2023/04/24 02:46:13;;;;;;;5.88;3.55;;;;;;;-144.73;100.00;54389.22;5031371;28;20087;-73
2023/04/24 02:48:38;;;;;;;10.07;3.45;;;;;;;-144.73;100.00;54395.38;5014121;28;20017;-73
2023/04/24 02:51:03;;;;;;;8.77;3.58;;;;;;;-144.73;100.00;54374.84;5029831;28;20404;-73
2023/04/24 02:53:30;;;;;;;9.88;3.47;;;;;;;-144.73;100.00;54436.44;5014635;28;20044;-73
2023/04/24 02:55:56;;;;;;;3.58;2.92;;;;;;;-144.73;100.00;54383.06;5012780;28;20030;-73
2023/04/24 02:58:21;;;;;;;3.88;3.38;;;;;;;-144.73;100.00;54370.75;5013804;28;20028;-74
2023/04/24 03:00:47;;;;;;;4.55;2.92;;;;;;;-144.73;100.00;54415.91;5026705;28;20037;-74
2023/04/24 03:03:12;;;;;;;14.25;3.08;;;;;;;-144.73;100.00;54415.91;5031383;28;20017;-73
2023/04/24 03:05:38;;;;;;;6.22;2.90;;;;;;;-144.73;100.00;54395.38;5008575;28;20495;-73
2023/04/24 03:08:03;;;;;;;9.35;2.92;;;;;;;-144.73;100.00;54378.97;5029699;28;20071;-73
2023/04/24 03:10:29;;;;;;;8.10;2.65;;;;;;;-144.73;100.00;54370.75;5012508;28;20052;-73
2023/04/24 03:12:54;;;;;;;5.05;2.72;;;;;;;-144.73;100.00;54350.22;5031724;28;20040;-73
2023/04/24 03:15:20;;;;;;;5.25;3.00;;;;;;;-144.73;100.00;54381.00;5031025;28;20040;-74
2023/04/24 03:17:45;;;;;;;3.10;2.75;;;;;;;-144.73;100.00;54370.75;5012368;28;20057;-73
2023/04/24 03:20:11;;;;;;;3.28;2.45;;;;;;;-144.73;100.00;54335.88;5027619;28;20041;-73
2023/04/24 03:22:36;;;;;;;5.18;2.80;;;;;;;-144.73;100.00;54366.66;5017694;28;20042;-72
2023/04/24 03:25:01;;;;;;;5.38;2.80;;;;;;;-144.73;100.00;54387.19;5026047;28;20034;-72
2023/04/24 03:27:27;;;;;;;4.72;2.20;;;;;;;-144.73;100.00;54391.28;5009761;28;20148;-73
2023/04/24 03:29:55;;;;;;;2.08;1.88;;;;;;;-144.73;100.00;54366.66;5026053;28;20041;-73
2023/04/24 03:32:22;;;;;;;5.57;2.53;;;;;;;-144.73;100.00;54387.19;5013608;28;20119;-73
2023/04/24 03:34:48;;;;;;;3.15;1.98;;;;;;;-144.73;100.00;54370.75;5012520;28;20048;-73
2023/04/24 03:37:13;;;;;;;5.35;2.03;;;;;;;-144.73;100.00;54354.34;5030380;28;20025;-74
2023/04/24 03:39:38;;;;;;;3.28;2.20;;;;;;;-144.73;100.00;54420.00;5028578;28;20084;-73
2023/04/24 03:42:04;;;;;;;8.15;2.30;;;;;;;-144.73;100.00;54333.81;5013472;28;20021;-73
2023/04/24 03:44:29;;;;;;;3.25;1.80;;;;;;;-144.73;100.00;54432.31;5029294;28;20408;-73
2023/04/24 03:46:54;;;;;;;2.70;2.17;;;;;;;-144.73;100.00;54360.50;5029678;28;20068;-73
2023/04/24 03:49:20;;;;;;;4.03;1.70;;;;;;;-144.73;100.00;54370.75;5012393;28;20133;-73
2023/04/24 03:51:45;;;;;;;3.53;1.90;;;;;;;-144.73;100.00;54378.97;5030882;28;20028;-73
2023/04/24 03:54:11;;;;;;;5.30;2.20;;;;;;;-144.73;100.00;54407.69;5030029;28;20029;-73
2023/04/24 03:56:36;;;;;;;3.15;2.22;;;;;;;-144.73;100.00;54391.28;5018808;28;20415;-73
2023/04/24 03:59:02;;;;;;;3.75;2.50;;;;;;;-144.73;100.00;54387.19;5028574;28;20077;-73
2023/04/24 04:01:28;;;;;;;3.90;2.13;;;;;;;-144.73;100.00;54366.66;5030673;28;20059;-73
2023/04/24 04:03:53;;;;;;;3.92;2.45;;;;;;;-144.73;100.00;54391.28;5029456;28;20108;-73
2023/04/24 04:06:19;;;;;;;3.13;2.03;;;;;;;-144.73;100.00;54397.44;5027743;28;20045;-73
2023/04/24 04:08:44;;;;;;;5.13;2.15;;;;;;;-144.73;100.00;54385.13;5028499;28;20025;-73
2023/04/24 04:11:10;;;;;;;4.03;2.28;;;;;;;-144.73;100.00;54387.19;5029754;28;20044;-73
2023/04/24 04:13:35;;;;;;;3.60;1.77;;;;;;;-144.73;100.00;54395.38;5030529;28;20028;-73
2023/04/24 04:16:01;;;;;;;7.72;1.83;;;;;;;-144.73;100.00;54374.84;5012011;28;20029;-73
2023/04/24 04:18:26;;;;;;;3.50;1.70;;;;;;;-144.73;100.00;54399.50;5026682;28;20030;-73
2023/04/24 04:20:52;;;;;;;3.65;1.67;;;;;;;-144.73;100.00;54337.91;5029109;28;20029;-73
2023/04/24 04:23:17;;;;;;;3.35;1.90;;;;;;;-144.73;100.00;54350.22;5029504;28;20033;-73
2023/04/24 04:25:42;;;;;;;6.28;1.95;;;;;;;-144.73;100.00;54391.28;5029196;28;20061;-73
2023/04/24 04:28:08;;;;;;;3.75;2.20;;;;;;;-144.73;100.00;54366.66;5028306;28;20021;-73
2023/04/24 04:30:33;;;;;;;3.65;1.88;;;;;;;-144.73;100.00;54356.38;5028687;28;20112;-73
2023/04/24 04:32:59;;;;;;;2.60;1.70;;;;;;;-144.73;100.00;54360.50;5013285;28;20033;-73
2023/04/24 04:35:24;;;;;;;6.80;1.95;;;;;;;-144.73;100.00;54387.19;5029906;28;20025;-73
2023/04/24 04:37:51;;;;;;;2.03;1.83;;;;;;;-144.73;100.00;54317.38;5012308;28;20108;-73
2023/04/24 04:40:17;;;;;;;3.22;1.90;;;;;;;-144.73;100.00;54342.03;5024911;28;20108;-73
2023/04/24 04:42:45;;;;;;;2.60;1.80;;;;;;;-144.73;100.00;54368.69;5012682;28;20033;-73
2023/04/24 04:45:11;;;;;;;8.73;1.70;;;;;;;-144.73;100.00;54407.69;5028634;28;20038;-73
2023/04/24 04:47:37;;;;;;;7.05;2.10;;;;;;;-144.73;100.00;54360.50;5013404;28;20017;-73
2023/04/24 04:50:03;;;;;;;3.80;2.08;;;;;;;-144.73;100.00;54383.06;5015070;28;20607;-73
2023/04/24 04:52:29;;;;;;;5.22;1.88;;;;;;;-144.73;100.00;54362.53;5016998;28;20025;-73
2023/04/24 04:54:55;;;;;;;7.35;2.25;;;;;;;-144.73;100.00;54358.44;5014688;28;20040;-73
2023/04/24 04:57:21;;;;;;;3.28;1.80;;;;;;;-144.73;100.00;54354.34;5016989;28;20021;-74
2023/04/24 04:59:47;;;;;;;2.47;1.58;;;;;;;-144.73;100.00;54391.28;5031968;28;20041;-73
2023/04/24 05:02:12;;;;;;;4.40;1.40;;;;;;;-144.73;100.00;54346.13;5016690;28;20025;-73
2023/04/24 05:04:37;;;;;;;5.13;1.40;;;;;;;-144.73;100.00;54407.69;5016713;28;20079;-74
2023/04/24 05:07:03;;;;;;;3.67;1.27;;;;;;;-144.73;100.00;54344.06;5018373;28;20480;-74
2023/04/24 05:09:29;;;;;;;4.05;1.75;;;;;;;-144.73;100.00;54372.81;5015623;28;20029;-73
2023/04/24 05:11:55;;;;;;;5.10;1.52;;;;;;;-144.73;100.00;54370.75;5032381;28;20137;-73
2023/04/24 05:14:21;;;;;;;2.92;1.30;;;;;;;-144.73;100.00;54362.53;5016162;28;20037;-75
2023/04/24 05:16:47;;;;;;;1.38;1.23;;;;;;;-144.73;100.00;54378.97;5016523;28;20033;-73
2023/04/24 05:19:13;;;;;;;2.20;1.30;;;;;;;-144.73;100.00;54362.53;5032239;28;20021;-74
2023/04/24 05:21:40;;;;;;;4.72;1.55;;;;;;;-144.73;100.00;54407.69;5032520;28;20022;-72
2023/04/24 05:24:05;;;;;;;5.43;1.67;;;;;;;-144.73;100.00;54387.19;5015164;28;20435;-73
2023/04/24 05:26:31;;;;;;;3.80;1.27;;;;;;;-144.73;100.00;54383.06;5033411;28;20029;-73
2023/04/24 05:28:56;;;;;;;2.92;1.20;;;;;;;-144.73;100.00;54407.69;5033071;28;20017;-73
2023/04/24 05:31:21;;;;;;;3.22;1.30;;;;;;;-144.73;100.00;54372.81;5031704;28;20044;-74
2023/04/24 05:33:47;;;;;;;1.83;0.98;;;;;;;-144.73;100.00;54376.91;5025860;28;20097;-73
2023/04/24 05:36:13;;;;;;;2.03;1.30;;;;;;;-144.73;100.00;54391.28;5028979;28;20157;-74
2023/04/24 05:38:38;;;;;;;3.17;1.38;;;;;;;-144.73;100.00;54346.13;5028534;28;20026;-73
2023/04/24 05:41:04;;;;;;;1.63;1.25;;;;;;;-144.73;100.00;54378.97;5013407;28;20042;-73
2023/04/24 05:43:29;;;;;;;4.68;1.20;;;;;;;-144.73;100.00;54407.69;5031810;28;20021;-74
2023/04/24 05:45:55;;;;;;;11.40;1.35;;;;;;;-144.73;100.00;54385.13;5032684;28;20075;-74
2023/04/24 05:48:22;;;;;;;4.28;1.10;;;;;;;-144.73;100.00;54407.69;5015473;28;20030;-74
2023/04/24 05:50:47;;;;;;;10.40;1.10;;;;;;;-144.73;100.00;54372.81;5014318;28;20068;-73
2023/04/24 05:53:13;;;;;;;1.80;1.10;;;;;;;-144.73;100.00;54333.81;5015366;28;20052;-73
2023/04/24 05:55:38;;;;;;;1.10;1.00;;;;;;;-144.73;100.00;54366.66;5032648;28;20034;-73
2023/04/24 05:58:04;;;;;;;5.20;1.40;;;;;;;-144.73;100.00;54378.97;5015106;28;20196;-73
2023/04/24 06:00:30;;;;;;;4.25;1.38;;;;;;;-144.73;100.00;54370.75;5013846;28;20029;-73
2023/04/24 06:02:55;;;;;;;1.58;1.10;;;;;;;-144.73;100.00;54395.38;5033072;28;20375;-74
2023/04/24 06:05:21;;;;;;;2.55;1.23;;;;;;;-144.73;100.00;54350.22;5015563;28;20105;-73
2023/04/24 06:07:47;;;;;;;1.95;1.20;;;;;;;-144.73;100.00;54391.28;5015007;28;20057;-73
2023/04/24 06:10:12;;;;;;;4.32;1.20;;;;;;;-144.73;100.00;54346.13;5013565;28;20116;-73
2023/04/24 06:12:37;;;;;;;3.60;1.45;;;;;;;-144.73;100.00;54378.97;5012935;28;20027;-70
2023/04/24 06:15:03;;;;;;;6.50;1.77;;;;;;;-144.73;100.00;54411.81;5013990;28;20364;-69
2023/04/24 06:17:29;;;;;;;2.28;1.40;;;;;;;-144.73;100.00;54374.84;5032947;28;20025;-70
2023/04/24 06:19:54;;;;;;;2.45;1.30;;;;;;;-144.73;100.00;54432.31;5031075;28;20042;-69
2023/04/24 06:22:19;;;;;;;4.53;1.50;;;;;;;-144.73;100.00;54395.38;5014896;28;20032;-69
2023/04/24 06:24:45;;;;;;;2.63;1.90;;;;;;;-144.73;100.00;54358.44;5031206;28;20056;-70
2023/04/24 06:27:10;;;;;;;3.25;1.70;;;;;;;-144.73;99.20;54383.06;5014747;28;20017;-69
2023/04/24 06:29:36;;;;;;;4.05;1.40;;;;;;;-144.73;100.00;54383.06;5032123;28;20500;-70
2023/04/24 06:32:01;;;;;;;4.05;1.98;;;;;;;-144.73;99.55;54407.69;5022164;28;20025;-70
2023/04/24 06:34:26;;;;;;;3.65;1.52;;;;;;;-144.73;100.00;54383.06;5003105;28;20034;-70
2023/04/24 06:36:52;;;;;;;4.03;1.60;;;;;;;-144.73;98.85;54354.34;5023622;28;20040;-70
2023/04/24 06:39:17;;;;;;;4.10;1.80;;;;;;;-144.73;98.20;54391.28;5007083;28;20071;-70
2023/04/24 06:41:43;;;;;;;9.85;1.98;;;;;;;-144.73;96.64;54358.44;5025267;28;20043;-70
2023/04/24 06:44:08;;;;;;;5.47;1.95;;;;;;;-144.73;96.23;54374.84;5024313;28;20515;-69
2023/04/24 06:46:33;;;;;;;2.33;1.52;;;;;;;-144.73;96.43;54411.81;5020075;28;20029;-70
2023/04/24 06:49:00;;;;;;;7.57;1.80;;;;;;;-144.73;95.44;54424.13;5003667;28;20023;-69
2023/04/24 06:51:26;;;;;;;4.18;2.00;;;;;;;-144.73;95.14;54378.97;5004537;28;20034;-70
2023/04/24 06:53:53;;;;;;;5.18;1.83;;;;;;;-144.73;94.30;54407.69;5004520;28;20508;-70
2023/04/24 06:56:20;;;;;;;5.30;2.03;;;;;;;-144.73;94.96;54370.75;5005328;28;20030;-69
2023/04/24 06:58:45;;;;;;;3.88;1.58;;;;;;;-144.73;94.03;54370.75;5005148;28;20022;-70
2023/04/24 07:01:11;;;;;;;5.00;1.92;;;;;;;-144.73;94.33;54374.84;5017697;28;20041;-69
2023/04/24 07:03:36;;;;;;;4.53;2.10;;;;;;;-144.73;94.08;54381.00;5025673;28;20013;-70
2023/04/24 07:06:03;;;;;;;4.38;2.13;;;;;;;-144.73;93.52;54366.66;5020235;28;20601;-70
2023/04/24 07:08:30;;;;;;;5.10;1.77;;;;;;;-144.73;92.98;54360.50;5021137;28;20032;-69
2023/04/24 07:10:56;;;;;;;3.70;1.83;;;;;;;-144.73;92.08;54323.53;5008351;28;20040;-70
2023/04/24 07:13:22;;;;;;;4.40;2.10;;;;;;;-144.73;90.70;54325.59;5003514;28;20021;-70
2023/04/24 07:15:50;;;;;;;5.10;2.00;;;;;;;-144.73;90.55;54378.97;5019156;28;20089;-70
2023/04/24 07:18:16;;;;;;;5.65;2.50;;;;;;;-144.73;92.23;54366.66;5014591;28;20018;-70
2023/04/24 07:20:42;;;;;;;3.10;2.10;;;;;;;-144.73;92.00;54370.75;5004970;28;20049;-69
2023/04/24 07:23:07;;;;;;;2.33;2.10;;;;;;;-144.73;92.26;54372.81;5018037;28;20029;-70
2023/04/24 07:25:32;;;;;;;3.80;2.63;;;;;;;-144.73;91.76;54333.81;5018675;28;20050;-70
2023/04/24 07:27:58;;;;;;;8.35;2.50;;;;;;;-144.73;89.98;54385.13;5004602;28;20056;-70
2023/04/24 07:30:23;;;;;;;3.28;2.30;;;;;;;-144.73;90.12;54342.03;5021106;28;20353;-70
2023/04/24 07:32:49;;;;;;;3.40;2.10;;;;;;;-144.73;90.21;54358.44;5021416;28;20025;-70
2023/04/24 07:35:14;;;;;;;5.38;2.70;;;;;;;-144.73;88.74;54378.97;5018882;28;20049;-70
2023/04/24 07:37:40;;;;;;;4.80;2.67;;;;;;;-144.73;88.92;54358.44;5009370;28;20053;-70
2023/04/24 07:40:06;;;;;;;13.45;2.78;;;;;;;-144.73;90.44;54325.59;5019260;28;20041;-70
2023/04/24 07:42:34;;;;;;;6.97;2.70;;;;;;;-144.73;89.91;54362.53;5018926;28;20037;-69
2023/04/24 07:44:59;;;;;;;7.40;2.40;;;;;;;-144.73;88.38;54342.03;5020566;28;20117;-70
2023/04/24 07:47:25;;;;;;;7.53;2.88;;;;;;;-144.73;87.23;54378.97;5022078;28;20074;-70
2023/04/24 07:49:50;;;;;;;4.72;2.67;;;;;;;-144.73;88.44;54337.91;5004009;28;20034;-70
2023/04/24 07:52:16;;;;;;;3.67;2.75;;;;;;;-144.73;88.38;54374.84;5004597;28;20021;-69
2023/04/24 07:54:42;;;;;;;4.43;2.45;;;;;;;-144.73;87.45;54337.91;5020292;28;20044;-69
2023/04/24 07:57:08;;;;;;;4.50;3.17;;;;;;;-144.73;85.68;54368.69;5023526;28;20045;-69
2023/04/24 07:59:34;;;;;;;8.30;3.40;;;;;;;-144.73;88.53;54317.38;5009230;28;20034;-69
2023/04/24 08:02:01;;;;;;;4.47;2.80;;;;;;;-144.73;88.97;54395.38;5018508;28;20049;-70
2023/04/24 08:04:27;;;;;;;16.95;3.42;;;;;;;-144.73;86.63;54352.28;5020045;28;20046;-69
2023/04/24 08:06:52;;;;;;;12.00;3.13;;;;;;;-144.73;85.96;54383.06;5005063;28;20104;-70
2023/04/24 08:09:17;;;;;;;9.05;3.92;;;;;;;-144.73;84.43;54342.03;5019634;28;20022;-70
2023/04/24 08:11:43;;;;;;;7.93;2.80;;;;;;;-144.73;86.22;54333.81;5003204;28;20040;-70
2023/04/24 08:14:08;;;;;;;4.45;2.85;;;;;;;-144.73;87.16;54389.22;5019632;28;20029;-70
2023/04/24 08:16:34;;;;;;;12.07;3.78;;;;;;;-144.73;86.14;54319.44;5019117;28;20052;-69
2023/04/24 08:19:00;;;;;;;11.95;4.43;;;;;;;-144.73;86.40;54342.03;5002031;28;20014;-70
2023/04/24 08:21:26;;;;;;;5.82;3.70;;;;;;;-144.73;88.28;54348.19;5018924;28;20029;-71
2023/04/24 08:23:52;;;;;;;7.80;4.22;;;;;;;-144.73;89.17;54411.81;5004119;28;20030;-70
2023/04/24 08:26:17;;;;;;;8.60;4.30;;;;;;;-144.73;89.50;54346.13;5025757;28;20059;-70
2023/04/24 08:28:43;;;;;;;4.47;4.05;;;;;;;-144.73;90.44;54325.59;5023937;28;20028;-70
2023/04/24 08:31:08;;;;;;;5.88;4.20;;;;;;;-144.73;89.39;54362.53;5022819;28;20029;-70
2023/04/24 08:33:34;;;;;;;9.20;4.78;;;;;;;-144.73;89.17;54370.75;5022009;28;20127;-70
2023/04/24 08:36:04;;;;;;;7.07;4.75;;;;;;;-144.73;89.94;54374.84;5022204;28;20075;-69
2023/04/24 08:38:29;;;;;;;5.72;4.00;;;;;;;-144.73;87.60;54385.13;5023609;28;20056;-69
2023/04/24 08:40:58;;;;;;;7.55;4.25;;;;;;;-144.73;88.68;54383.06;5022674;28;20045;-69
2023/04/24 08:43:24;;;;;;;8.13;4.53;;;;;;;-144.73;88.43;54387.19;5009428;28;20018;-70
2023/04/24 08:45:50;;;;;;;5.78;4.25;;;;;;;-144.73;88.59;54354.34;5005691;28;20045;-70
2023/04/24 08:48:16;;;;;;;8.18;4.57;;;;;;;-144.73;89.10;54346.13;5025964;28;20025;-70
2023/04/24 08:50:42;;;;;;;10.55;5.00;;;;;;;-144.73;87.82;54391.28;5024760;28;20038;-69
2023/04/24 08:53:08;;;;;;;6.47;4.40;;;;;;;-144.73;88.23;54383.06;5024070;28;20021;-69
2023/04/24 08:55:35;;;;;;;6.93;4.80;;;;;;;-144.73;86.06;54333.81;5021279;28;20033;-71
2023/04/24 08:58:02;;;;;;;4.85;3.80;;;;;;;-144.73;86.03;54329.72;5009851;28;20112;-69
2023/04/24 09:00:27;;;;;;;5.53;4.15;;;;;;;-144.73;85.38;54362.53;5026766;28;20060;-69
2023/04/24 09:02:53;;;;;;;5.22;4.07;;;;;;;-144.73;85.08;54366.66;5024091;28;20029;-70
2023/04/24 09:05:21;;;;;;;18.30;5.30;;;;;;;-144.73;85.24;54350.22;5024020;28;20414;-69
2023/04/24 09:07:52;;;;;;;9.30;4.70;;;;;;;-144.73;85.32;54354.34;5022080;28;20052;-70
2023/04/24 09:10:18;;;;;;;9.70;4.40;;;;;;;-144.73;85.30;54370.75;5006145;28;20033;-69
2023/04/24 09:12:43;;;;;;;7.43;4.85;;;;;;;-144.73;85.87;54350.22;5009748;28;20025;-70
2023/04/24 09:15:10;;;;;;;10.60;4.60;;;;;;;-144.73;86.23;54358.44;5005885;28;20041;-70
2023/04/24 09:17:36;;;;;;;7.32;4.05;;;;;;;-144.73;86.51;54366.66;5007349;28;20056;-69
2023/04/24 09:20:02;;;;;;;15.63;4.55;;;;;;;-144.73;86.08;54358.44;5010632;28;20049;-69
2023/04/24 09:22:30;;;;;;;8.15;4.40;;;;;;;-144.73;85.70;54370.75;5025455;28;20029;-70
2023/04/24 09:25:07;;;;;;;6.78;4.82;;;;;;;-144.73;86.14;54378.97;5020844;28;20545;-70
2023/04/24 09:27:35;;;;;;;8.30;4.50;;;;;;;-144.73;87.07;54378.97;5023077;28;20480;-69
2023/04/24 09:30:02;;;;;;;6.90;4.68;;;;;;;-144.73;86.86;54352.28;5022854;28;20156;-69
2023/04/24 09:32:29;;;;;;;8.85;4.88;;;;;;;-144.73;87.32;54391.28;5024947;28;20021;-69
2023/04/24 09:35:14;;;;;;;11.25;4.85;;;;;;;-144.73;87.64;54350.22;5022665;28;20036;-70
2023/04/24 09:37:48;;;;;;;8.60;5.00;;;;;;;-144.73;87.31;54362.53;5030752;28;20035;-70
2023/04/24 09:40:18;;;;;;;8.32;5.93;;;;;;;-144.73;88.31;54329.72;5008244;28;20037;-69
2023/04/24 09:42:46;;;;;;;6.95;4.88;;;;;;;-144.73;87.37;54362.53;5011289;28;20033;-70
2023/04/24 09:45:11;;;;;;;7.95;5.15;;;;;;;-144.73;85.73;54354.34;5026441;28;20182;-69
2023/04/24 09:47:40;;;;;;;11.80;6.20;;;;;;;-144.73;87.09;54364.59;5028110;28;20101;-71
2023/04/24 09:50:14;;;;;;;10.00;5.80;;;;;;;-144.73;86.93;54331.75;5008138;28;20033;-69
2023/04/24 09:53:01;;;;;;;8.68;5.20;;;;;;;-144.73;87.78;54420.00;5011680;28;20112;-69
2023/04/24 09:55:27;;;;;;;10.25;5.70;;;;;;;-144.73;86.96;54358.44;5009921;28;20041;-69
2023/04/24 09:57:54;;;;;;;9.70;4.95;;;;;;;-144.73;87.38;54362.53;5014953;28;20025;-70
2023/04/24 10:00:28;;;;;;;9.35;5.28;;;;;;;-144.73;88.78;54383.06;5012656;28;20533;-70
2023/04/24 10:03:00;;;;;;;8.18;5.28;;;;;;;-144.73;88.96;54383.06;5028889;28;20145;-69
2023/04/24 10:05:32;;;;;;;8.13;5.82;;;;;;;-144.73;88.12;54370.75;5022400;28;20101;-69
2023/04/24 10:08:11;;;;;;;9.02;6.22;;;;;;;-144.73;88.52;54387.19;5026016;28;20030;-69
2023/04/24 10:10:46;;;;;;;9.60;5.50;;;;;;;-144.73;88.66;54383.06;5024169;28;20029;-69
2023/04/24 10:13:14;;;;;;;8.98;5.35;;;;;;;-144.73;87.25;54360.50;5022922;28;20033;-69
2023/04/24 10:15:41;;;;;;;7.63;5.55;;;;;;;-144.73;86.37;54387.19;5024996;28;20034;-68
2023/04/24 10:18:08;;;;;;;10.02;7.10;;;;;;;-144.73;86.76;54358.44;5028229;28;20025;-68
2023/04/24 10:20:35;;;;;;;11.27;7.18;;;;;;;-144.73;86.67;54362.53;5012611;28;20080;-67
2023/04/24 10:23:01;;;;;;;11.77;7.32;;;;;;;-144.73;86.98;54362.53;5010101;28;20083;-70
2023/04/24 10:25:31;;;;;;;12.40;7.32;;;;;;;-144.73;89.00;54381.00;5007282;28;20088;-70
2023/04/24 10:28:01;;;;;;;10.50;6.85;;;;;;;-144.73;88.96;54358.44;5027411;28;20037;-70
2023/04/24 10:30:37;;;;;;;12.18;7.68;;;;;;;-144.73;89.24;54381.00;5012128;28;20067;-70
2023/04/24 10:33:07;;;;;;;16.35;8.07;;;;;;;-144.73;87.98;54346.13;5027603;28;20028;-70
2023/04/24 10:35:39;;;;;;;12.02;7.88;;;;;;;-144.73;87.13;54358.44;5027057;28;20025;-68
2023/04/24 10:38:16;;;;;;;11.02;8.15;;;;;;;-144.73;87.74;54309.19;5011113;28;20479;-70
2023/04/24 10:40:42;;;;;;;10.10;7.43;;;;;;;-144.73;87.43;54383.06;5023191;28;20034;-69
2023/04/24 10:43:11;;;;;;;14.25;8.43;;;;;;;-144.73;87.75;54311.22;5009324;28;20053;-69
2023/04/24 10:45:38;;;;;;;11.77;8.45;;;;;;;-144.73;88.11;54364.59;5025847;28;20033;-69
2023/04/24 10:48:10;;;;;;;13.10;9.02;;;;;;;-144.73;89.06;54391.28;5024076;28;20033;-69
2023/04/24 10:50:43;;;;;;;19.20;10.95;;;;;;;-144.73;91.00;54374.84;5024219;28;20036;-70
2023/04/24 10:53:14;;;;;;;18.60;11.57;;;;;;;-144.73;92.52;54387.19;5023409;28;20040;-69
2023/04/24 10:55:46;;;;;;;17.05;9.88;;;;;;;-144.73;92.19;54378.97;5010596;28;20045;-69
2023/04/24 10:58:11;;;;;;;18.48;10.45;;;;;;;-144.73;93.72;54350.22;5008198;28;20141;-69
2023/04/24 11:00:39;;;;;;;19.38;10.95;;;;;;;-144.73;92.44;54309.19;5006471;28;20045;-68
2023/04/24 11:03:07;;;;;;;17.92;11.70;;;;;;;-144.73;91.66;54411.81;5006997;28;20091;-70
2023/04/24 11:05:50;;;;;;;18.42;10.35;;;;;;;-144.73;89.59;54333.81;5026626;28;20049;-69